Terminal Aerodrome Forecast
Issued by NWS

Home | Current Version | Previous Version | Graphics & Text | Print | Product List | Glossary On
Versions: 1 2 3 4 5 6 7 8 9 10 11 12 13 14 15 16 17 18 19
000
FTUS43 KTOP 091700
TAFFOE
TAF
KFOE 091739Z 0918/1018 34003KT P6SM FEW060
     FM100600 13006KT P6SM BKN090 PROB30 1009/1013 4SM -TSRA BR
      BKN060CB=

USA.gov is the U.S. government's official web portal to all federal, state and local government web resources and services.